Time;durP1;ratioP1;P1;durP2;ratioP2;P2;SDS_P1;SDS_P2;PMS_P1;PMS_P2;Temp;Humidity;BMP_temperature;BMP_pressure;BME280_temperature;BME280_humidity;BME280_pressure;Samples;Min_cycle;Max_cycle;Signal;HPM_P1;HPM_P2
2023/08/22 00:00:10;;;;;;;6.88;3.22;;;16.70;99.90;;;;;;5142114;27;20034;-65
2023/08/22 00:02:36;;;;;;;7.63;4.15;;;16.80;99.90;;;;;;5101787;28;20050;-66
2023/08/22 00:05:02;;;;;;;8.93;4.50;;;16.80;99.90;;;;;;5101381;28;20492;-66
2023/08/22 00:07:27;;;;;;;8.70;4.72;;;16.80;99.90;;;;;;5098058;28;20043;-71
2023/08/22 00:09:53;;;;;;;8.82;4.82;;;16.90;99.90;;;;;;5098213;28;20115;-66
2023/08/22 00:12:19;;;;;;;6.93;3.03;;;16.90;99.90;;;;;;5106193;28;20058;-66
2023/08/22 00:14:45;;;;;;;7.28;3.60;;;16.90;99.90;;;;;;5098313;28;20111;-66
2023/08/22 00:17:11;;;;;;;7.07;3.50;;;17.20;99.90;;;;;;5105922;28;20079;-66
2023/08/22 00:19:40;;;;;;;5.90;3.72;;;16.80;99.90;;;;;;5098426;28;20497;-66
2023/08/22 00:22:06;;;;;;;5.72;3.28;;;16.90;99.90;;;;;;5104858;28;20459;-66
2023/08/22 00:24:35;;;;;;;5.22;3.45;;;16.80;99.90;;;;;;5099628;28;20134;-66
2023/08/22 00:27:02;;;;;;;8.80;3.45;;;16.80;99.90;;;;;;5098911;28;20040;-66
2023/08/22 00:29:27;;;;;;;7.90;4.15;;;16.80;99.90;;;;;;5102922;28;20048;-66
2023/08/22 00:31:53;;;;;;;15.18;3.95;;;16.90;99.90;;;;;;5101189;28;20521;-66
2023/08/22 00:34:19;;;;;;;6.75;3.72;;;16.80;99.90;;;;;;5101853;28;20048;-65
2023/08/22 00:36:45;;;;;;;9.30;3.40;;;16.80;99.90;;;;;;5100045;28;20386;-66
2023/08/22 00:39:10;;;;;;;9.18;3.70;;;16.80;99.90;;;;;;5116862;28;20047;-66
2023/08/22 00:41:36;;;;;;;10.43;4.07;;;16.80;99.90;;;;;;5117188;28;20119;-66
2023/08/22 00:44:01;;;;;;;6.78;3.55;;;16.70;99.90;;;;;;5097355;28;20547;-66
2023/08/22 00:46:29;;;;;;;13.98;4.75;;;16.70;99.90;;;;;;5099417;28;20466;-66
2023/08/22 00:48:55;;;;;;;6.95;4.40;;;16.70;99.90;;;;;;5103306;28;20059;-66
2023/08/22 00:51:21;;;;;;;10.70;4.88;;;16.70;99.90;;;;;;5106471;28;20036;-65
2023/08/22 00:53:47;;;;;;;8.32;4.55;;;16.70;99.90;;;;;;5102083;28;20513;-66
2023/08/22 00:56:14;;;;;;;10.30;4.00;;;16.70;99.90;;;;;;5104694;28;20082;-66
2023/08/22 00:58:41;;;;;;;13.18;6.18;;;16.70;99.90;;;;;;5112240;28;20042;-66
2023/08/22 01:01:08;;;;;;;6.95;3.83;;;16.70;99.90;;;;;;5119821;27;20049;-66
2023/08/22 01:03:34;;;;;;;9.63;4.47;;;16.60;99.90;;;;;;5146176;27;20043;-66
2023/08/22 01:06:32;;;;;;;12.52;4.70;;;16.60;99.90;;;;;;5145039;27;20454;-66
2023/08/22 01:09:04;;;;;;;12.45;5.18;;;16.60;99.90;;;;;;5142378;27;20494;-67
2023/08/22 01:11:36;;;;;;;8.32;5.30;;;16.60;99.90;;;;;;5124899;27;20061;-66
2023/08/22 01:14:07;;;;;;;11.63;4.80;;;16.50;99.90;;;;;;5142474;27;20032;-66
2023/08/22 01:16:33;;;;;;;8.80;4.90;;;16.60;99.90;;;;;;5145043;27;20097;-66
2023/08/22 01:19:01;;;;;;;7.55;4.65;;;16.60;99.90;;;;;;5145744;27;20390;-66
2023/08/22 01:21:28;;;;;;;8.75;5.28;;;16.60;99.90;;;;;;5143783;27;20050;-66
2023/08/22 01:23:53;;;;;;;11.85;5.18;;;16.50;99.90;;;;;;5140644;27;20378;-66
2023/08/22 01:26:19;;;;;;;8.55;4.15;;;16.60;99.90;;;;;;5145110;27;20068;-66
2023/08/22 01:28:48;;;;;;;9.55;4.63;;;16.50;99.90;;;;;;5142346;27;20035;-66
2023/08/22 01:31:21;;;;;;;5.90;4.25;;;16.60;99.90;;;;;;5141612;27;20577;-66
2023/08/22 01:33:58;;;;;;;5.78;4.28;;;16.60;99.90;;;;;;5148695;27;20051;-66
2023/08/22 01:36:25;;;;;;;8.30;4.32;;;16.50;99.90;;;;;;5126704;27;20047;-66
2023/08/22 01:38:53;;;;;;;10.55;4.50;;;16.50;99.90;;;;;;5126021;27;20046;-66
2023/08/22 01:41:20;;;;;;;7.40;4.00;;;16.50;99.90;;;;;;5144893;27;20042;-65
2023/08/22 01:43:46;;;;;;;9.57;4.53;;;16.50;99.90;;;;;;5144666;27;20077;-66
2023/08/22 01:46:11;;;;;;;7.07;4.38;;;16.50;99.90;;;;;;5144957;27;20502;-66
2023/08/22 01:48:37;;;;;;;6.75;4.30;;;16.50;99.90;;;;;;5144966;27;20172;-66
2023/08/22 01:51:03;;;;;;;14.02;5.90;;;16.50;99.90;;;;;;5144349;27;20090;-66
2023/08/22 01:53:29;;;;;;;9.50;5.70;;;16.40;99.90;;;;;;5145063;27;20047;-66
2023/08/22 01:55:59;;;;;;;8.10;5.53;;;16.40;99.90;;;;;;5144133;27;20042;-66
2023/08/22 01:58:25;;;;;;;10.40;5.60;;;16.40;99.90;;;;;;5141083;27;20046;-67
2023/08/22 02:00:50;;;;;;;10.27;5.50;;;16.40;99.90;;;;;;5142891;27;20398;-66
2023/08/22 02:03:16;;;;;;;9.00;5.93;;;16.40;99.90;;;;;;5139685;27;20486;-66
2023/08/22 02:05:42;;;;;;;13.50;6.00;;;16.40;99.90;;;;;;5122936;27;20179;-66
2023/08/22 02:08:07;;;;;;;12.38;6.20;;;16.50;99.90;;;;;;5143592;27;20114;-66
2023/08/22 02:10:33;;;;;;;11.20;5.90;;;16.50;99.90;;;;;;5141161;27;20043;-66
2023/08/22 02:12:58;;;;;;;8.50;5.70;;;16.50;99.90;;;;;;5123847;27;20050;-66
2023/08/22 02:15:24;;;;;;;6.75;4.68;;;16.50;99.90;;;;;;5141831;27;20078;-65
2023/08/22 02:17:51;;;;;;;5.75;4.13;;;16.50;99.90;;;;;;5124864;27;20157;-66
2023/08/22 02:20:18;;;;;;;6.28;3.97;;;16.30;99.90;;;;;;5122087;27;20066;-66
2023/08/22 02:22:44;;;;;;;5.45;3.85;;;16.20;99.90;;;;;;5146951;27;20215;-64
2023/08/22 02:25:11;;;;;;;7.63;4.05;;;16.20;99.90;;;;;;5141164;27;20067;-65
2023/08/22 02:27:37;;;;;;;6.72;3.78;;;16.10;99.90;;;;;;5148458;27;20079;-67
2023/08/22 02:30:05;;;;;;;5.65;3.03;;;16.10;99.90;;;;;;5140151;27;20035;-66
2023/08/22 02:32:31;;;;;;;4.97;3.28;;;16.10;99.90;;;;;;5143865;27;20050;-66
2023/08/22 02:34:57;;;;;;;4.60;2.92;;;16.10;99.90;;;;;;5143582;27;20031;-67
2023/08/22 02:37:22;;;;;;;5.18;2.45;;;16.00;99.90;;;;;;5143380;27;20049;-66
2023/08/22 02:39:48;;;;;;;8.25;2.55;;;16.00;99.90;;;;;;5123270;27;20137;-66
2023/08/22 02:42:14;;;;;;;4.53;2.72;;;15.90;99.90;;;;;;5121980;27;20047;-66
2023/08/22 02:44:39;;;;;;;3.63;2.58;;;15.90;99.90;;;;;;5146860;27;20087;-66
2023/08/22 02:47:05;;;;;;;5.93;3.22;;;15.80;99.90;;;;;;5138004;27;20038;-66
2023/08/22 02:49:31;;;;;;;4.18;2.85;;;15.70;99.90;;;;;;5144030;27;20045;-67
2023/08/22 02:51:56;;;;;;;4.55;2.72;;;15.80;99.90;;;;;;5142455;27;20107;-66
2023/08/22 02:54:22;;;;;;;4.80;2.83;;;15.70;99.90;;;;;;5144991;27;20099;-66
2023/08/22 02:56:47;;;;;;;6.03;3.45;;;15.70;99.90;;;;;;5125177;27;20043;-66
2023/08/22 02:59:13;;;;;;;5.82;3.80;;;15.60;99.90;;;;;;5139981;27;20405;-66
2023/08/22 03:01:39;;;;;;;9.85;4.28;;;15.60;99.90;;;;;;5139651;27;20058;-67
2023/08/22 03:04:04;;;;;;;8.13;4.15;;;15.60;99.90;;;;;;5143338;27;20039;-66
2023/08/22 03:06:30;;;;;;;6.20;3.63;;;15.50;99.90;;;;;;5122053;27;20059;-66
2023/08/22 03:08:56;;;;;;;14.05;4.68;;;15.50;99.90;;;;;;5143713;27;20130;-66
2023/08/22 03:11:22;;;;;;;5.20;3.50;;;15.40;99.90;;;;;;5147042;27;20085;-66
2023/08/22 03:13:48;;;;;;;5.80;3.83;;;15.40;99.90;;;;;;5142596;27;20034;-66
2023/08/22 03:16:13;;;;;;;5.15;2.50;;;15.30;99.90;;;;;;5147575;27;20039;-66
2023/08/22 03:18:39;;;;;;;11.52;2.80;;;15.30;99.90;;;;;;5139901;27;20035;-66
2023/08/22 03:21:05;;;;;;;3.38;2.42;;;15.30;99.90;;;;;;5124283;27;20055;-66
2023/08/22 03:23:30;;;;;;;2.38;1.92;;;15.20;99.90;;;;;;5141141;27;20707;-66
2023/08/22 03:26:01;;;;;;;5.63;3.20;;;15.20;99.90;;;;;;5130801;27;20050;-66
2023/08/22 03:28:27;;;;;;;7.35;4.50;;;15.10;99.90;;;;;;5143962;27;20050;-66
2023/08/22 03:31:03;;;;;;;6.50;3.25;;;15.10;99.90;;;;;;5103795;27;20520;-66
2023/08/22 03:33:30;;;;;;;26.65;4.72;;;15.10;99.90;;;;;;5139842;27;20466;-66
2023/08/22 03:35:56;;;;;;;8.35;3.97;;;15.00;99.90;;;;;;5149668;27;20038;-66
2023/08/22 03:38:23;;;;;;;4.95;2.90;;;15.00;99.90;;;;;;5142975;27;20047;-66
2023/08/22 03:40:48;;;;;;;4.10;2.88;;;15.00;99.90;;;;;;5140468;27;20056;-66
2023/08/22 03:43:20;;;;;;;4.50;3.10;;;15.00;99.90;;;;;;5140702;27;20461;-66
2023/08/22 03:45:47;;;;;;;4.82;2.88;;;15.00;99.90;;;;;;5142169;27;20053;-66
2023/08/22 03:48:13;;;;;;;4.35;3.17;;;15.00;99.90;;;;;;5128075;27;20402;-66
2023/08/22 03:50:42;;;;;;;5.38;3.47;;;14.90;99.90;;;;;;5142144;27;20159;-66
2023/08/22 03:53:09;;;;;;;6.78;4.03;;;14.90;99.90;;;;;;5139624;27;20088;-68
2023/08/22 03:55:35;;;;;;;5.25;3.40;;;14.80;99.90;;;;;;5141717;27;20053;-66
2023/08/22 03:58:01;;;;;;;4.47;3.03;;;14.80;99.90;;;;;;5142041;27;20031;-66
2023/08/22 04:00:27;;;;;;;6.97;2.53;;;14.80;99.90;;;;;;5141640;27;20034;-66
2023/08/22 04:02:54;;;;;;;5.90;3.05;;;14.70;99.90;;;;;;5142077;27;20083;-66
2023/08/22 04:05:21;;;;;;;5.50;3.65;;;14.70;99.90;;;;;;5124097;27;20050;-66
2023/08/22 04:07:46;;;;;;;6.20;3.72;;;14.70;99.90;;;;;;5142121;27;20050;-66
2023/08/22 04:10:12;;;;;;;6.32;3.92;;;14.70;99.90;;;;;;5142502;27;20070;-66
2023/08/22 04:12:37;;;;;;;8.52;4.90;;;14.70;99.90;;;;;;5150371;27;20427;-66
2023/08/22 04:15:03;;;;;;;7.38;4.50;;;14.70;99.90;;;;;;5142314;27;20435;-66
2023/08/22 04:17:29;;;;;;;9.30;3.88;;;14.60;99.90;;;;;;5140865;27;20045;-66
2023/08/22 04:19:54;;;;;;;6.70;4.00;;;14.60;99.90;;;;;;5125503;27;20087;-66
2023/08/22 04:22:20;;;;;;;6.90;3.22;;;14.50;99.90;;;;;;5144545;27;20034;-66
2023/08/22 04:24:46;;;;;;;5.40;2.88;;;14.50;99.90;;;;;;5143262;27;20042;-66
2023/08/22 04:27:11;;;;;;;7.95;5.32;;;14.50;99.90;;;;;;5143234;27;20524;-66
2023/08/22 04:29:37;;;;;;;8.65;5.75;;;14.50;99.90;;;;;;5113735;27;20042;-66
2023/08/22 04:32:03;;;;;;;7.63;5.25;;;14.60;99.90;;;;;;5144039;27;20043;-67
2023/08/22 04:34:29;;;;;;;7.18;3.35;;;14.60;99.90;;;;;;5145601;27;20072;-66
2023/08/22 04:36:55;;;;;;;7.20;3.67;;;14.50;99.90;;;;;;5146421;27;20042;-66
2023/08/22 04:39:21;;;;;;;4.88;3.60;;;14.40;99.90;;;;;;5145888;27;20043;-66
2023/08/22 04:41:46;;;;;;;5.60;3.33;;;14.30;99.90;;;;;;5146177;27;20092;-66
2023/08/22 04:44:12;;;;;;;4.97;3.45;;;14.30;99.90;;;;;;5131165;27;20458;-66
2023/08/22 04:46:37;;;;;;;4.93;2.90;;;14.30;99.90;;;;;;5142942;27;20050;-67
2023/08/22 04:49:03;;;;;;;5.47;3.30;;;14.20;99.90;;;;;;5145605;27;20031;-66
2023/08/22 04:51:29;;;;;;;6.55;2.75;;;14.20;99.90;;;;;;5146527;27;20047;-66
2023/08/22 04:53:54;;;;;;;5.05;2.70;;;14.20;99.90;;;;;;5144266;27;20051;-66
2023/08/22 04:56:21;;;;;;;3.55;2.20;;;14.10;99.90;;;;;;5145927;27;20093;-67
2023/08/22 04:58:46;;;;;;;3.05;2.28;;;14.20;99.90;;;;;;5145578;27;20038;-67
2023/08/22 05:01:12;;;;;;;3.25;2.42;;;14.30;99.90;;;;;;5125942;27;20474;-65
2023/08/22 05:03:38;;;;;;;3.90;2.83;;;14.10;99.90;;;;;;5130256;27;20498;-67
2023/08/22 05:06:03;;;;;;;5.55;2.65;;;14.10;99.90;;;;;;5144393;27;20034;-66
2023/08/22 05:08:29;;;;;;;12.38;5.57;;;14.10;99.90;;;;;;5142022;27;20043;-66
2023/08/22 05:10:55;;;;;;;9.43;5.72;;;14.20;99.90;;;;;;5142377;27;20042;-66
2023/08/22 05:13:20;;;;;;;11.35;6.07;;;14.30;99.90;;;;;;5149418;27;20155;-67
2023/08/22 05:15:46;;;;;;;12.70;6.70;;;14.40;99.90;;;;;;5127089;27;20057;-68
2023/08/22 05:18:11;;;;;;;9.38;6.10;;;14.40;99.90;;;;;;5151767;27;20128;-71
2023/08/22 05:20:40;;;;;;;9.00;5.40;;;14.50;99.90;;;;;;5143469;27;20096;-67
2023/08/22 05:23:05;;;;;;;7.05;4.57;;;14.40;99.90;;;;;;5134691;27;20054;-67
2023/08/22 05:25:31;;;;;;;11.15;4.80;;;14.50;99.90;;;;;;5142960;27;20050;-69
2023/08/22 05:27:57;;;;;;;6.07;4.60;;;14.50;99.90;;;;;;5145166;27;20411;-67
2023/08/22 05:30:23;;;;;;;4.63;3.85;;;14.50;99.90;;;;;;5145189;27;20512;-67
2023/08/22 05:32:49;;;;;;;4.75;3.45;;;15.10;99.90;;;;;;5144490;27;20035;-67
2023/08/22 05:35:14;;;;;;;5.85;4.38;;;14.60;99.90;;;;;;5144750;27;20050;-67
2023/08/22 05:37:40;;;;;;;10.85;4.45;;;14.60;99.90;;;;;;5143717;27;20114;-67
2023/08/22 05:40:08;;;;;;;8.38;5.30;;;14.60;99.90;;;;;;5141823;27;20099;-66
2023/08/22 05:42:34;;;;;;;7.38;5.03;;;14.70;99.90;;;;;;5150199;27;20046;-67
2023/08/22 05:44:59;;;;;;;7.93;5.50;;;14.80;99.90;;;;;;5141665;27;20142;-67
2023/08/22 05:47:26;;;;;;;13.80;6.90;;;15.00;99.90;;;;;;5148217;27;20123;-66
2023/08/22 05:49:52;;;;;;;14.52;7.30;;;15.40;99.90;;;;;;5144556;27;20042;-67
2023/08/22 05:52:19;;;;;;;9.90;6.93;;;15.40;99.90;;;;;;5144508;27;20038;-67
2023/08/22 05:54:45;;;;;;;12.10;7.03;;;15.30;99.90;;;;;;5144786;27;20134;-67
2023/08/22 05:57:11;;;;;;;14.70;7.35;;;15.40;99.90;;;;;;5141528;27;20392;-67
2023/08/22 05:59:37;;;;;;;12.73;7.22;;;15.50;99.90;;;;;;5141231;27;20031;-68
2023/08/22 06:02:03;;;;;;;13.85;7.82;;;15.60;99.90;;;;;;5142497;27;20059;-67
2023/08/22 06:04:29;;;;;;;14.25;8.55;;;15.70;99.90;;;;;;5139164;27;20039;-68
2023/08/22 06:06:55;;;;;;;12.05;7.28;;;15.80;99.90;;;;;;5144263;27;20374;-69
2023/08/22 06:09:22;;;;;;;15.82;8.38;;;15.90;99.90;;;;;;5145677;27;20037;-68
2023/08/22 06:11:47;;;;;;;16.77;8.23;;;16.00;99.90;;;;;;5141487;27;20354;-67
2023/08/22 06:14:13;;;;;;;15.35;7.88;;;16.10;99.90;;;;;;5148068;27;20060;-68
2023/08/22 06:16:39;;;;;;;14.45;8.10;;;16.20;99.90;;;;;;5140163;27;20427;-68
2023/08/22 06:19:05;;;;;;;13.70;9.23;;;16.40;99.90;;;;;;5140284;27;20031;-68
2023/08/22 06:21:31;;;;;;;11.90;7.40;;;16.40;99.90;;;;;;5141768;27;20532;-68
2023/08/22 06:23:57;;;;;;;13.18;7.80;;;16.50;99.90;;;;;;5141359;27;20528;-67
2023/08/22 06:26:23;;;;;;;13.60;8.57;;;16.60;99.90;;;;;;5144521;27;20167;-68
2023/08/22 06:28:50;;;;;;;14.15;8.90;;;16.70;99.90;;;;;;5144274;27;20476;-68
2023/08/22 06:31:15;;;;;;;16.02;7.82;;;16.70;99.90;;;;;;5148966;27;20389;-68
2023/08/22 06:33:41;;;;;;;13.90;7.90;;;16.90;99.90;;;;;;5141254;27;20038;-68
2023/08/22 06:36:07;;;;;;;14.93;9.15;;;16.90;99.90;;;;;;5141479;27;20034;-68
2023/08/22 06:38:33;;;;;;;12.95;8.85;;;17.00;99.90;;;;;;5138682;27;20058;-68
2023/08/22 06:41:04;;;;;;;14.45;9.05;;;17.10;99.90;;;;;;5148155;27;20051;-68
2023/08/22 06:43:30;;;;;;;14.30;8.60;;;17.30;99.90;;;;;;5145422;27;20189;-67
2023/08/22 06:45:58;;;;;;;18.20;9.77;;;17.40;99.90;;;;;;5141147;27;20176;-68
2023/08/22 06:48:25;;;;;;;17.40;9.32;;;17.60;99.90;;;;;;5142677;27;20493;-69
2023/08/22 06:50:51;;;;;;;13.43;8.35;;;17.70;99.90;;;;;;5139932;27;20451;-67
2023/08/22 06:53:17;;;;;;;16.70;9.88;;;17.80;99.90;;;;;;5148640;27;20125;-68
2023/08/22 06:55:46;;;;;;;14.98;8.30;;;17.80;99.90;;;;;;5143156;27;20038;-68
2023/08/22 06:58:11;;;;;;;14.13;7.43;;;17.90;99.90;;;;;;5129232;27;20035;-68
2023/08/22 07:00:37;;;;;;;13.27;8.63;;;18.00;99.90;;;;;;5140305;27;20042;-70
2023/08/22 07:03:03;;;;;;;16.58;8.20;;;18.10;99.90;;;;;;5141081;27;20054;-70
2023/08/22 07:05:29;;;;;;;12.15;7.90;;;18.20;99.90;;;;;;5126983;27;20065;-68
2023/08/22 07:07:54;;;;;;;14.10;8.13;;;18.30;99.90;;;;;;5144378;27;20043;-67
2023/08/22 07:10:20;;;;;;;15.00;7.68;;;18.40;99.90;;;;;;5149446;27;20068;-67
2023/08/22 07:12:46;;;;;;;14.45;8.77;;;18.50;99.90;;;;;;5142066;27;20043;-67
2023/08/22 07:15:12;;;;;;;15.27;7.65;;;18.60;99.90;;;;;;5144274;27;20172;-67
2023/08/22 07:17:38;;;;;;;15.80;9.20;;;18.70;99.90;;;;;;5133114;27;20039;-67
2023/08/22 07:20:04;;;;;;;15.68;7.50;;;18.80;99.90;;;;;;5148840;27;20045;-71
2023/08/22 07:22:32;;;;;;;13.60;8.23;;;19.20;99.90;;;;;;5122328;27;20630;-68
2023/08/22 07:24:57;;;;;;;14.27;7.72;;;19.10;99.90;;;;;;5136478;27;20039;-66
2023/08/22 07:27:23;;;;;;;14.88;8.07;;;19.10;99.90;;;;;;5143891;27;20035;-66
2023/08/22 07:29:49;;;;;;;14.15;6.95;;;19.30;99.90;;;;;;5140992;27;20422;-66
2023/08/22 07:32:15;;;;;;;14.32;7.55;;;19.40;99.90;;;;;;5143203;27;20504;-66
2023/08/22 07:34:41;;;;;;;15.43;7.32;;;19.50;99.90;;;;;;5140300;27;20043;-66
2023/08/22 07:37:07;;;;;;;16.85;7.53;;;19.60;99.90;;;;;;5151393;27;20043;-67
2023/08/22 07:39:32;;;;;;;12.07;6.78;;;19.70;99.90;;;;;;5134176;27;20039;-66
2023/08/22 07:41:58;;;;;;;14.38;6.80;;;19.80;99.90;;;;;;5146637;27;20065;-65
2023/08/22 07:44:24;;;;;;;12.55;7.20;;;19.80;99.90;;;;;;5149473;27;20107;-66
2023/08/22 07:46:51;;;;;;;15.05;6.90;;;19.90;99.90;;;;;;5140884;27;20084;-66
2023/08/22 07:49:17;;;;;;;9.52;5.93;;;19.90;99.90;;;;;;5151285;27;20055;-66
2023/08/22 07:51:42;;;;;;;14.13;6.57;;;19.90;99.90;;;;;;5148861;27;20049;-66
2023/08/22 07:54:08;;;;;;;12.27;6.78;;;20.10;99.90;;;;;;5146177;27;20047;-65
2023/08/22 07:56:35;;;;;;;11.88;7.07;;;20.20;99.90;;;;;;5131841;27;20035;-66
2023/08/22 07:59:01;;;;;;;14.02;7.35;;;20.30;99.90;;;;;;5140636;27;20043;-66
2023/08/22 08:01:27;;;;;;;12.57;6.20;;;20.30;99.90;;;;;;5142498;27;20116;-66
2023/08/22 08:03:53;;;;;;;12.23;6.25;;;20.40;99.90;;;;;;5142904;27;20062;-66
2023/08/22 08:06:19;;;;;;;9.90;5.28;;;20.60;99.90;;;;;;5139418;27;20042;-66
2023/08/22 08:08:44;;;;;;;17.10;5.70;;;20.80;99.90;;;;;;5144964;27;20042;-65
2023/08/22 08:11:10;;;;;;;12.10;5.25;;;21.00;99.90;;;;;;5138583;27;20051;-65
2023/08/22 08:13:35;;;;;;;14.38;5.97;;;21.10;99.90;;;;;;5134683;27;20046;-65
2023/08/22 08:16:01;;;;;;;11.65;5.57;;;21.40;99.90;;;;;;5139542;27;20370;-63
2023/08/22 08:18:27;;;;;;;9.93;5.05;;;21.50;99.90;;;;;;5147551;27;20117;-65
2023/08/22 08:20:52;;;;;;;14.10;5.47;;;21.60;99.90;;;;;;5120334;28;20046;-64
2023/08/22 08:23:18;;;;;;;9.25;4.30;;;21.80;99.90;;;;;;5139895;27;20047;-65
2023/08/22 08:25:44;;;;;;;8.10;4.53;;;21.90;99.90;;;;;;5129371;27;20104;-65
2023/08/22 08:28:10;;;;;;;10.05;5.32;;;22.00;99.90;;;;;;5130471;27;20435;-68
2023/08/22 08:30:36;;;;;;;7.65;4.80;;;22.20;99.90;;;;;;5122757;27;20039;-64
2023/08/22 08:33:06;;;;;;;9.15;4.22;;;22.50;99.90;;;;;;5144145;27;20043;-64
2023/08/22 08:35:33;;;;;;;7.72;4.03;;;23.10;99.90;;;;;;5124359;27;20474;-64
2023/08/22 08:37:59;;;;;;;8.20;4.40;;;22.80;99.90;;;;;;5135230;27;20041;-65
2023/08/22 08:40:33;;;;;;;9.73;4.28;;;23.10;99.90;;;;;;5142451;27;20057;-64
2023/08/22 08:42:59;;;;;;;6.88;4.20;;;23.30;99.90;;;;;;5138641;27;20081;-67
2023/08/22 08:45:28;;;;;;;8.48;3.97;;;23.50;99.90;;;;;;5125951;27;20047;-67
2023/08/22 08:47:54;;;;;;;16.75;4.50;;;23.60;99.90;;;;;;5142512;27;20118;-68
2023/08/22 08:50:19;;;;;;;8.45;3.72;;;23.80;99.90;;;;;;5123628;27;20485;-68
2023/08/22 08:52:45;;;;;;;7.63;3.90;;;24.00;99.90;;;;;;5139347;27;20039;-67
2023/08/22 08:55:11;;;;;;;7.60;3.75;;;24.10;99.90;;;;;;5144535;27;20061;-68
2023/08/22 08:57:37;;;;;;;9.40;4.10;;;24.30;99.90;;;;;;5139370;27;20103;-67
2023/08/22 09:00:03;;;;;;;7.72;4.25;;;24.30;99.90;;;;;;5120934;27;20490;-66
2023/08/22 09:02:31;;;;;;;8.45;4.25;;;24.20;99.90;;;;;;5140376;27;20082;-66
2023/08/22 09:04:57;;;;;;;6.88;4.00;;;24.30;99.90;;;;;;5126261;27;20043;-66
2023/08/22 09:07:23;;;;;;;10.38;4.22;;;24.50;99.90;;;;;;5142888;27;20034;-67
2023/08/22 09:09:49;;;;;;;9.43;4.60;;;24.60;99.90;;;;;;5125815;27;20054;-67
2023/08/22 09:12:15;;;;;;;8.52;4.90;;;24.70;99.90;;;;;;5139572;27;20378;-68
2023/08/22 09:14:43;;;;;;;8.00;4.25;;;24.70;99.90;;;;;;5122125;27;20050;-66
2023/08/22 09:17:12;;;;;;;8.07;4.05;;;24.70;99.90;;;;;;5139599;27;20501;-66
2023/08/22 09:19:39;;;;;;;9.35;4.57;;;24.70;99.90;;;;;;5143838;27;20100;-66
2023/08/22 09:22:05;;;;;;;11.20;4.47;;;24.70;99.90;;;;;;5144087;27;20106;-66
2023/08/22 09:24:32;;;;;;;10.75;4.25;;;24.70;99.90;;;;;;5145061;27;20742;-66
2023/08/22 09:27:00;;;;;;;7.97;4.38;;;24.60;99.90;;;;;;5145044;27;20078;-68
2023/08/22 09:29:30;;;;;;;11.18;4.10;;;24.50;99.90;;;;;;5126622;27;20058;-66
2023/08/22 09:32:05;;;;;;;8.73;3.97;;;24.50;99.90;;;;;;5148198;27;20069;-68
2023/08/22 09:34:32;;;;;;;9.50;4.18;;;24.60;99.90;;;;;;5142571;27;20379;-66
2023/08/22 09:36:57;;;;;;;9.38;4.68;;;24.80;99.90;;;;;;5145584;27;20045;-66
2023/08/22 09:39:24;;;;;;;9.02;3.90;;;25.00;99.90;;;;;;5145226;27;20039;-67
2023/08/22 09:41:58;;;;;;;12.88;4.68;;;25.20;99.90;;;;;;5144644;27;20591;-66
2023/08/22 09:44:25;;;;;;;11.18;4.70;;;25.40;99.90;;;;;;5145107;27;20404;-66
2023/08/22 09:46:56;;;;;;;9.25;4.78;;;25.60;99.90;;;;;;5144960;27;20055;-68
2023/08/22 09:49:23;;;;;;;10.38;4.78;;;25.60;99.90;;;;;;5145445;27;20125;-67
2023/08/22 09:51:51;;;;;;;10.40;4.88;;;25.60;99.90;;;;;;5125911;27;20045;-67
2023/08/22 09:54:17;;;;;;;11.70;4.43;;;25.60;99.90;;;;;;5144893;27;20111;-67
2023/08/22 09:56:44;;;;;;;7.40;4.38;;;25.50;99.90;;;;;;5144997;27;20518;-69
2023/08/22 09:59:15;;;;;;;9.77;4.13;;;25.70;99.90;;;;;;5123330;27;20051;-68
2023/08/22 10:01:42;;;;;;;10.68;4.95;;;25.70;99.90;;;;;;5140761;27;20494;-68
2023/08/22 10:04:09;;;;;;;8.05;3.97;;;25.80;99.90;;;;;;5131023;27;20043;-67
2023/08/22 10:06:36;;;;;;;10.80;4.43;;;25.80;99.90;;;;;;5146869;27;20109;-68
2023/08/22 10:09:08;;;;;;;9.85;4.00;;;25.70;99.90;;;;;;5125296;27;20050;-67
2023/08/22 10:11:42;;;;;;;7.80;4.53;;;25.80;99.90;;;;;;5141429;27;20139;-67
2023/08/22 10:14:12;;;;;;;6.93;4.50;;;25.90;99.90;;;;;;5148742;27;20062;-68
2023/08/22 10:16:38;;;;;;;13.82;5.22;;;26.00;99.90;;;;;;5144605;27;20047;-69
2023/08/22 10:19:04;;;;;;;7.22;4.10;;;26.00;99.90;;;;;;5141236;27;20039;-66
2023/08/22 10:21:46;;;;;;;7.72;3.92;;;25.90;99.90;;;;;;5143599;27;20078;-67
2023/08/22 10:24:29;;;;;;;6.82;3.80;;;26.00;99.90;;;;;;5122993;27;20061;-66
2023/08/22 10:27:02;;;;;;;8.32;3.90;;;26.30;99.90;;;;;;5140790;27;20481;-66
2023/08/22 10:29:33;;;;;;;10.32;4.10;;;26.20;99.90;;;;;;5142719;27;20486;-68
2023/08/22 10:32:02;;;;;;;8.23;4.13;;;26.00;99.90;;;;;;5105608;27;20134;-67
2023/08/22 10:34:54;;;;;;;7.18;3.97;;;26.10;99.90;;;;;;5141146;27;20042;-67
2023/08/22 10:37:25;;;;;;;8.05;3.67;;;26.30;99.90;;;;;;5125256;27;20065;-66
2023/08/22 10:39:52;;;;;;;7.65;3.50;;;26.30;99.90;;;;;;5143595;27;20093;-67
2023/08/22 10:42:20;;;;;;;8.35;3.78;;;26.30;99.90;;;;;;5125586;27;20054;-67
2023/08/22 10:44:52;;;;;;;6.63;2.72;;;26.40;99.90;;;;;;5142090;27;20053;-67
2023/08/22 10:47:26;;;;;;;6.43;3.20;;;26.40;99.90;;;;;;5140502;27;20064;-67
2023/08/22 10:49:52;;;;;;;9.63;2.73;;;26.40;99.90;;;;;;5129957;27;20042;-67
2023/08/22 10:52:28;;;;;;;9.80;2.58;;;26.50;99.90;;;;;;5140344;27;20043;-68
2023/08/22 10:55:00;;;;;;;7.03;3.08;;;26.60;99.90;;;;;;5148992;27;20481;-68
2023/08/22 10:57:27;;;;;;;6.35;2.35;;;26.60;99.90;;;;;;5137147;27;20496;-67
2023/08/22 11:00:00;;;;;;;8.73;2.25;;;26.70;99.90;;;;;;5122471;27;20051;-68
2023/08/22 11:02:33;;;;;;;5.93;2.20;;;26.70;99.90;;;;;;5143674;27;20051;-66
2023/08/22 11:05:02;;;;;;;5.75;2.25;;;26.90;99.90;;;;;;5145403;27;20039;-66
2023/08/22 11:07:29;;;;;;;8.25;2.80;;;26.80;99.90;;;;;;5140676;27;20118;-68
2023/08/22 11:09:55;;;;;;;7.28;2.35;;;26.80;99.90;;;;;;5140339;27;20035;-70
2023/08/22 11:12:23;;;;;;;5.22;1.75;;;26.70;99.90;;;;;;5140437;27;20043;-70
2023/08/22 11:14:50;;;;;;;5.80;1.83;;;26.90;99.90;;;;;;5140520;27;20419;-68
2023/08/22 11:17:17;;;;;;;6.07;2.10;;;27.00;99.90;;;;;;5141569;27;20035;-66
2023/08/22 11:19:44;;;;;;;4.18;1.30;;;26.90;99.90;;;;;;5144188;27;20050;-69
2023/08/22 11:22:10;;;;;;;3.67;1.27;;;27.00;99.90;;;;;;5140334;27;20087;-68
2023/08/22 11:24:36;;;;;;;4.65;1.30;;;27.00;99.90;;;;;;5143106;27;20073;-66
2023/08/22 11:27:05;;;;;;;6.00;1.60;;;27.10;99.90;;;;;;5143058;27;20078;-67
2023/08/22 11:29:51;;;;;;;4.82;1.63;;;27.20;99.90;;;;;;5142533;27;20066;-67
2023/08/22 11:32:29;;;;;;;5.72;1.48;;;27.20;99.90;;;;;;5143360;27;20046;-66
2023/08/22 11:35:01;;;;;;;7.43;1.50;;;27.40;99.90;;;;;;5138274;27;20100;-66
2023/08/22 11:37:29;;;;;;;6.45;1.50;;;27.20;99.90;;;;;;5120698;27;20500;-67
2023/08/22 11:40:00;;;;;;;5.18;1.55;;;27.20;99.90;;;;;;5130461;27;20039;-68
2023/08/22 11:42:30;;;;;;;4.93;1.70;;;27.20;99.90;;;;;;5112162;27;20489;-67
2023/08/22 11:45:04;;;;;;;4.65;2.03;;;27.20;99.90;;;;;;5142942;27;20039;-68
2023/08/22 11:47:52;;;;;;;4.00;1.50;;;27.10;99.90;;;;;;5143278;27;20452;-66
2023/08/22 11:50:17;;;;;;;10.45;1.73;;;27.20;99.90;;;;;;5139018;27;20164;-66
2023/08/22 11:52:43;;;;;;;6.40;2.13;;;27.20;99.90;;;;;;5119491;27;20134;-67
2023/08/22 11:55:10;;;;;;;7.00;1.90;;;27.30;99.90;;;;;;5144285;27;20061;-65
2023/08/22 11:57:39;;;;;;;5.85;1.90;;;27.40;99.90;;;;;;5142243;27;20065;-68
2023/08/22 12:00:07;;;;;;;6.43;1.85;;;27.40;99.90;;;;;;5141261;27;20061;-68
2023/08/22 12:02:33;;;;;;;5.10;1.83;;;27.50;99.90;;;;;;5142458;27;20050;-67
2023/08/22 12:04:59;;;;;;;7.57;1.80;;;27.40;99.90;;;;;;5141352;27;20472;-70
2023/08/22 12:07:25;;;;;;;9.75;2.22;;;27.50;99.90;;;;;;5123551;27;20041;-69
2023/08/22 12:10:05;;;;;;;8.00;2.17;;;27.30;99.90;;;;;;5123618;27;20047;-69
2023/08/22 12:12:32;;;;;;;5.13;1.33;;;27.20;99.90;;;;;;5143263;27;20515;-67
2023/08/22 12:14:59;;;;;;;6.38;1.90;;;27.30;99.90;;;;;;5142787;27;20126;-68
2023/08/22 12:17:25;;;;;;;7.75;2.47;;;27.20;99.90;;;;;;5139569;27;20042;-67
2023/08/22 12:19:51;;;;;;;7.93;2.20;;;27.10;99.90;;;;;;5139045;27;20486;-66
2023/08/22 12:22:17;;;;;;;5.75;1.83;;;27.10;99.90;;;;;;5139373;27;20125;-69
2023/08/22 12:24:44;;;;;;;5.70;2.08;;;27.20;99.90;;;;;;5146084;27;20126;-67
2023/08/22 12:27:10;;;;;;;8.70;2.20;;;27.40;99.90;;;;;;5140349;27;20093;-68
2023/08/22 12:29:36;;;;;;;8.80;3.00;;;27.60;99.90;;;;;;5141414;27;20130;-67
2023/08/22 12:32:02;;;;;;;5.43;2.13;;;27.80;99.90;;;;;;5126665;28;20115;-72
2023/08/22 12:34:27;;;;;;;8.40;2.60;;;27.80;99.90;;;;;;5147418;27;20051;-68
2023/08/22 12:36:54;;;;;;;5.97;2.65;;;27.70;99.90;;;;;;5142154;27;20043;-69
2023/08/22 12:39:20;;;;;;;6.18;2.58;;;27.60;99.90;;;;;;5132172;27;20047;-69
2023/08/22 12:41:45;;;;;;;9.32;2.63;;;27.20;99.90;;;;;;5142350;27;20047;-68